sensor_id;sensor_type;location;lat;lon;timestamp;pressure;altitude;pressure_sealevel;temperature;humidity
72336;BME280;65062;48.446;8.834;2023-03-17T00:00:51;97286.38;;;1.18;87.63
72336;BME280;65062;48.446;8.834;2023-03-17T00:03:51;97279.31;;;1.20;87.36
72336;BME280;65062;48.446;8.834;2023-03-17T00:06:53;97277.66;;;1.10;87.59
72336;BME280;65062;48.446;8.834;2023-03-17T00:09:54;97274.00;;;1.03;87.37
72336;BME280;65062;48.446;8.834;2023-03-17T00:12:55;97266.41;;;1.01;87.81
72336;BME280;65062;48.446;8.834;2023-03-17T00:16:00;97261.13;;;1.03;88.19
72336;BME280;65062;48.446;8.834;2023-03-17T00:19:01;97254.59;;;1.08;88.07
72336;BME280;65062;48.446;8.834;2023-03-17T00:22:05;97248.94;;;1.14;88.12
72336;BME280;65062;48.446;8.834;2023-03-17T00:25:17;97245.25;;;1.07;87.98
72336;BME280;65062;48.446;8.834;2023-03-17T00:28:21;97238.19;;;1.09;87.63
72336;BME280;65062;48.446;8.834;2023-03-17T00:31:26;97233.88;;;1.10;87.38
72336;BME280;65062;48.446;8.834;2023-03-17T00:34:28;97231.56;;;1.16;87.28
72336;BME280;65062;48.446;8.834;2023-03-17T00:37:28;97232.78;;;1.03;87.35
72336;BME280;65062;48.446;8.834;2023-03-17T00:40:29;97235.47;;;1.01;87.73
72336;BME280;65062;48.446;8.834;2023-03-17T00:43:30;97244.66;;;0.94;87.53
72336;BME280;65062;48.446;8.834;2023-03-17T00:46:31;97237.75;;;0.95;87.42
72336;BME280;65062;48.446;8.834;2023-03-17T00:49:34;97240.88;;;0.89;87.35
72336;BME280;65062;48.446;8.834;2023-03-17T00:52:35;97237.03;;;0.74;87.57
72336;BME280;65062;48.446;8.834;2023-03-17T00:55:35;97230.81;;;0.76;88.32
72336;BME280;65062;48.446;8.834;2023-03-17T00:58:36;97232.16;;;0.80;88.13
72336;BME280;65062;48.446;8.834;2023-03-17T01:01:36;97223.63;;;0.80;88.84
72336;BME280;65062;48.446;8.834;2023-03-17T01:04:37;97213.63;;;0.86;88.52
72336;BME280;65062;48.446;8.834;2023-03-17T01:07:38;97209.56;;;0.84;88.49
72336;BME280;65062;48.446;8.834;2023-03-17T01:10:39;97200.31;;;0.81;88.74
72336;BME280;65062;48.446;8.834;2023-03-17T01:13:39;97211.25;;;0.74;88.95
72336;BME280;65062;48.446;8.834;2023-03-17T01:16:40;97194.47;;;0.70;89.53
72336;BME280;65062;48.446;8.834;2023-03-17T01:19:40;97186.78;;;0.79;89.50
72336;BME280;65062;48.446;8.834;2023-03-17T01:22:42;97192.16;;;0.67;89.12
72336;BME280;65062;48.446;8.834;2023-03-17T01:25:43;97195.69;;;0.75;89.42
72336;BME280;65062;48.446;8.834;2023-03-17T01:28:43;97197.34;;;0.76;89.07
72336;BME280;65062;48.446;8.834;2023-03-17T01:31:44;97208.16;;;0.80;88.77
72336;BME280;65062;48.446;8.834;2023-03-17T01:34:45;97209.16;;;0.88;88.44
72336;BME280;65062;48.446;8.834;2023-03-17T01:37:46;97209.44;;;0.85;88.32
72336;BME280;65062;48.446;8.834;2023-03-17T01:40:49;97208.59;;;0.85;88.11
72336;BME280;65062;48.446;8.834;2023-03-17T01:43:49;97195.97;;;0.91;88.25
72336;BME280;65062;48.446;8.834;2023-03-17T01:46:50;97182.56;;;0.88;88.43
72336;BME280;65062;48.446;8.834;2023-03-17T01:49:51;97184.88;;;0.91;87.89
72336;BME280;65062;48.446;8.834;2023-03-17T01:52:52;97178.91;;;0.90;87.69
72336;BME280;65062;48.446;8.834;2023-03-17T01:55:54;97175.97;;;1.04;87.57
72336;BME280;65062;48.446;8.834;2023-03-17T01:58:58;97168.22;;;0.95;87.64
72336;BME280;65062;48.446;8.834;2023-03-17T02:02:04;97173.75;;;0.90;87.95
72336;BME280;65062;48.446;8.834;2023-03-17T02:05:08;97183.94;;;0.92;87.86
72336;BME280;65062;48.446;8.834;2023-03-17T02:08:14;97175.09;;;0.94;87.63
72336;BME280;65062;48.446;8.834;2023-03-17T02:11:15;97166.19;;;0.98;87.09
72336;BME280;65062;48.446;8.834;2023-03-17T02:14:16;97166.97;;;0.99;87.57
72336;BME280;65062;48.446;8.834;2023-03-17T02:17:21;97172.41;;;0.96;87.03
72336;BME280;65062;48.446;8.834;2023-03-17T02:23:23;97167.38;;;0.94;86.94
72336;BME280;65062;48.446;8.834;2023-03-17T02:26:24;97160.63;;;0.93;87.00
72336;BME280;65062;48.446;8.834;2023-03-17T02:29:25;97178.50;;;0.85;87.01
72336;BME280;65062;48.446;8.834;2023-03-17T02:32:26;97171.31;;;0.79;87.79
72336;BME280;65062;48.446;8.834;2023-03-17T02:35:27;97179.31;;;0.76;87.78
72336;BME280;65062;48.446;8.834;2023-03-17T02:38:27;97175.75;;;0.68;88.28
72336;BME280;65062;48.446;8.834;2023-03-17T02:41:28;97171.81;;;0.64;88.41
72336;BME280;65062;48.446;8.834;2023-03-17T02:44:28;97160.97;;;0.70;88.14
72336;BME280;65062;48.446;8.834;2023-03-17T02:47:28;97158.53;;;0.68;88.22
72336;BME280;65062;48.446;8.834;2023-03-17T02:50:29;97160.16;;;0.69;88.18
72336;BME280;65062;48.446;8.834;2023-03-17T02:53:30;97158.97;;;0.73;88.35
72336;BME280;65062;48.446;8.834;2023-03-17T02:56:31;97161.81;;;0.70;88.53
72336;BME280;65062;48.446;8.834;2023-03-17T02:59:31;97167.09;;;0.78;88.00
72336;BME280;65062;48.446;8.834;2023-03-17T03:02:32;97156.38;;;0.83;87.96
72336;BME280;65062;48.446;8.834;2023-03-17T03:05:32;97159.53;;;0.86;87.91
72336;BME280;65062;48.446;8.834;2023-03-17T03:08:32;97155.47;;;0.84;87.47
72336;BME280;65062;48.446;8.834;2023-03-17T03:11:33;97156.38;;;0.83;87.76
72336;BME280;65062;48.446;8.834;2023-03-17T03:14:33;97156.09;;;0.67;87.53
72336;BME280;65062;48.446;8.834;2023-03-17T03:17:34;97161.63;;;0.62;88.07
72336;BME280;65062;48.446;8.834;2023-03-17T03:20:34;97160.53;;;0.55;87.94
72336;BME280;65062;48.446;8.834;2023-03-17T03:23:35;97164.72;;;0.47;88.38
72336;BME280;65062;48.446;8.834;2023-03-17T03:26:35;97163.75;;;0.38;88.66
72336;BME280;65062;48.446;8.834;2023-03-17T03:29:36;97165.25;;;0.41;88.90
72336;BME280;65062;48.446;8.834;2023-03-17T03:32:37;97157.91;;;0.36;88.74
72336;BME280;65062;48.446;8.834;2023-03-17T03:35:38;97156.72;;;0.40;88.72
72336;BME280;65062;48.446;8.834;2023-03-17T03:38:39;97151.25;;;0.24;88.61
72336;BME280;65062;48.446;8.834;2023-03-17T03:41:41;97150.03;;;0.28;88.84
72336;BME280;65062;48.446;8.834;2023-03-17T03:44:41;97150.78;;;0.10;88.86
72336;BME280;65062;48.446;8.834;2023-03-17T03:47:42;97148.22;;;0.10;89.23
72336;BME280;65062;48.446;8.834;2023-03-17T03:50:42;97154.13;;;0.00;89.19
72336;BME280;65062;48.446;8.834;2023-03-17T03:53:43;97156.22;;;-0.14;89.62
72336;BME280;65062;48.446;8.834;2023-03-17T03:56:43;97149.84;;;-0.20;89.75
72336;BME280;65062;48.446;8.834;2023-03-17T03:59:44;97144.84;;;-0.12;90.13
72336;BME280;65062;48.446;8.834;2023-03-17T04:02:45;97144.06;;;-0.12;90.00
72336;BME280;65062;48.446;8.834;2023-03-17T04:05:45;97144.13;;;-0.23;89.93
72336;BME280;65062;48.446;8.834;2023-03-17T04:08:46;97146.31;;;-0.19;90.30
72336;BME280;65062;48.446;8.834;2023-03-17T04:11:46;97137.75;;;-0.29;90.29
72336;BME280;65062;48.446;8.834;2023-03-17T04:14:46;97134.19;;;-0.37;90.29
72336;BME280;65062;48.446;8.834;2023-03-17T04:17:47;97137.19;;;-0.32;90.34
72336;BME280;65062;48.446;8.834;2023-03-17T04:20:47;97139.34;;;-0.37;90.51
72336;BME280;65062;48.446;8.834;2023-03-17T04:23:48;97135.22;;;-0.40;90.43
72336;BME280;65062;48.446;8.834;2023-03-17T04:26:48;97130.34;;;-0.43;90.47
72336;BME280;65062;48.446;8.834;2023-03-17T04:29:49;97124.34;;;-0.53;90.45
72336;BME280;65062;48.446;8.834;2023-03-17T04:32:49;97124.47;;;-0.54;90.54
72336;BME280;65062;48.446;8.834;2023-03-17T04:35:50;97126.53;;;-0.69;90.77
72336;BME280;65062;48.446;8.834;2023-03-17T04:38:50;97115.50;;;-0.80;90.86
72336;BME280;65062;48.446;8.834;2023-03-17T04:41:51;97115.16;;;-0.76;90.81
72336;BME280;65062;48.446;8.834;2023-03-17T04:44:51;97126.50;;;-0.78;91.02
72336;BME280;65062;48.446;8.834;2023-03-17T04:47:51;97128.56;;;-0.72;91.55
72336;BME280;65062;48.446;8.834;2023-03-17T04:50:52;97126.91;;;-0.73;91.32
72336;BME280;65062;48.446;8.834;2023-03-17T04:53:52;97123.31;;;-0.71;91.38
72336;BME280;65062;48.446;8.834;2023-03-17T04:56:53;97118.16;;;-0.71;91.25
72336;BME280;65062;48.446;8.834;2023-03-17T04:59:53;97119.91;;;-0.71;91.01
72336;BME280;65062;48.446;8.834;2023-03-17T05:02:53;97108.50;;;-0.78;91.21
72336;BME280;65062;48.446;8.834;2023-03-17T05:05:55;97117.38;;;-0.82;91.19
72336;BME280;65062;48.446;8.834;2023-03-17T05:08:56;97109.00;;;-0.84;91.47
72336;BME280;65062;48.446;8.834;2023-03-17T05:11:56;97117.34;;;-0.92;91.51
72336;BME280;65062;48.446;8.834;2023-03-17T05:14:57;97123.09;;;-0.99;91.83
72336;BME280;65062;48.446;8.834;2023-03-17T05:17:57;97122.97;;;-0.98;91.74
72336;BME280;65062;48.446;8.834;2023-03-17T05:20:58;97122.59;;;-0.93;91.60
72336;BME280;65062;48.446;8.834;2023-03-17T05:23:58;97126.34;;;-0.97;91.72
72336;BME280;65062;48.446;8.834;2023-03-17T05:26:59;97126.22;;;-0.96;91.84
72336;BME280;65062;48.446;8.834;2023-03-17T05:29:59;97129.09;;;-0.89;91.68
72336;BME280;65062;48.446;8.834;2023-03-17T05:33:01;97125.53;;;-0.98;91.76
72336;BME280;65062;48.446;8.834;2023-03-17T05:36:02;97123.00;;;-1.09;91.54
72336;BME280;65062;48.446;8.834;2023-03-17T05:39:02;97115.72;;;-0.93;91.68
72336;BME280;65062;48.446;8.834;2023-03-17T05:42:03;97129.53;;;-1.05;91.65
72336;BME280;65062;48.446;8.834;2023-03-17T05:45:04;97122.13;;;-0.98;91.73
72336;BME280;65062;48.446;8.834;2023-03-17T05:48:05;97114.78;;;-1.03;92.04
72336;BME280;65062;48.446;8.834;2023-03-17T05:51:05;97118.94;;;-1.11;91.90
72336;BME280;65062;48.446;8.834;2023-03-17T05:54:06;97120.53;;;-1.10;92.22
72336;BME280;65062;48.446;8.834;2023-03-17T05:57:07;97126.50;;;-1.10;91.89
72336;BME280;65062;48.446;8.834;2023-03-17T06:00:09;97135.16;;;-1.11;91.99
72336;BME280;65062;48.446;8.834;2023-03-17T06:03:11;97130.69;;;-1.09;92.17
72336;BME280;65062;48.446;8.834;2023-03-17T06:06:11;97130.25;;;-1.14;92.21
72336;BME280;65062;48.446;8.834;2023-03-17T06:09:11;97129.78;;;-1.08;92.17
72336;BME280;65062;48.446;8.834;2023-03-17T06:12:12;97126.34;;;-0.97;92.15
72336;BME280;65062;48.446;8.834;2023-03-17T06:15:12;97123.66;;;-0.96;92.23
72336;BME280;65062;48.446;8.834;2023-03-17T06:18:12;97125.28;;;-0.95;91.96
72336;BME280;65062;48.446;8.834;2023-03-17T06:21:13;97135.06;;;-0.89;91.93
72336;BME280;65062;48.446;8.834;2023-03-17T06:24:13;97138.63;;;-0.80;92.09
72336;BME280;65062;48.446;8.834;2023-03-17T06:27:14;97134.19;;;-0.78;92.09
72336;BME280;65062;48.446;8.834;2023-03-17T06:30:15;97128.19;;;-0.68;91.65
72336;BME280;65062;48.446;8.834;2023-03-17T06:33:15;97132.44;;;-0.57;91.49
72336;BME280;65062;48.446;8.834;2023-03-17T06:36:17;97124.66;;;-0.46;91.81
72336;BME280;65062;48.446;8.834;2023-03-17T06:39:17;97129.34;;;-0.31;91.48
72336;BME280;65062;48.446;8.834;2023-03-17T06:42:18;97127.13;;;-0.15;91.33
72336;BME280;65062;48.446;8.834;2023-03-17T06:45:18;97119.72;;;0.01;90.36
72336;BME280;65062;48.446;8.834;2023-03-17T06:48:19;97127.06;;;0.06;89.62
72336;BME280;65062;48.446;8.834;2023-03-17T06:51:19;97127.94;;;0.16;89.94
72336;BME280;65062;48.446;8.834;2023-03-17T06:54:20;97125.09;;;0.19;88.56
72336;BME280;65062;48.446;8.834;2023-03-17T06:57:23;97123.38;;;0.29;87.71
72336;BME280;65062;48.446;8.834;2023-03-17T07:00:23;97135.19;;;0.41;87.37
72336;BME280;65062;48.446;8.834;2023-03-17T07:03:23;97137.50;;;0.44;87.11
72336;BME280;65062;48.446;8.834;2023-03-17T07:06:24;97148.78;;;0.62;86.81
72336;BME280;65062;48.446;8.834;2023-03-17T07:09:25;97142.56;;;0.74;86.48
72336;BME280;65062;48.446;8.834;2023-03-17T07:12:26;97140.13;;;0.92;86.74
72336;BME280;65062;48.446;8.834;2023-03-17T07:15:27;97137.44;;;1.12;85.86
72336;BME280;65062;48.446;8.834;2023-03-17T07:18:30;97133.91;;;1.23;85.41
72336;BME280;65062;48.446;8.834;2023-03-17T07:21:33;97134.44;;;1.45;85.97
72336;BME280;65062;48.446;8.834;2023-03-17T07:24:34;97130.22;;;1.54;85.40
72336;BME280;65062;48.446;8.834;2023-03-17T07:27:34;97129.59;;;1.79;84.76
72336;BME280;65062;48.446;8.834;2023-03-17T07:30:35;97128.78;;;1.88;84.18
72336;BME280;65062;48.446;8.834;2023-03-17T07:33:35;97127.47;;;2.11;82.85
72336;BME280;65062;48.446;8.834;2023-03-17T07:36:36;97119.47;;;2.32;82.51
72336;BME280;65062;48.446;8.834;2023-03-17T07:39:36;97119.53;;;2.49;82.47
72336;BME280;65062;48.446;8.834;2023-03-17T07:42:37;97116.97;;;2.67;82.19
72336;BME280;65062;48.446;8.834;2023-03-17T07:45:38;97117.28;;;2.81;81.41
72336;BME280;65062;48.446;8.834;2023-03-17T07:48:39;97119.13;;;3.06;81.35
72336;BME280;65062;48.446;8.834;2023-03-17T07:51:41;97128.66;;;3.23;80.43
72336;BME280;65062;48.446;8.834;2023-03-17T07:54:42;97130.34;;;3.50;80.13
72336;BME280;65062;48.446;8.834;2023-03-17T07:57:43;97130.50;;;3.74;79.02
72336;BME280;65062;48.446;8.834;2023-03-17T08:00:44;97127.22;;;3.89;78.29
72336;BME280;65062;48.446;8.834;2023-03-17T08:03:44;97122.97;;;4.14;77.20
72336;BME280;65062;48.446;8.834;2023-03-17T08:06:44;97118.31;;;4.25;76.94
72336;BME280;65062;48.446;8.834;2023-03-17T08:09:45;97119.88;;;4.44;74.76
72336;BME280;65062;48.446;8.834;2023-03-17T08:12:47;97115.84;;;4.50;75.08
72336;BME280;65062;48.446;8.834;2023-03-17T08:15:51;97121.38;;;4.71;74.41
72336;BME280;65062;48.446;8.834;2023-03-17T08:18:52;97124.47;;;4.74;74.12
72336;BME280;65062;48.446;8.834;2023-03-17T08:21:52;97109.94;;;4.89;74.46
72336;BME280;65062;48.446;8.834;2023-03-17T08:24:53;97104.91;;;4.96;73.56
72336;BME280;65062;48.446;8.834;2023-03-17T08:27:53;97104.44;;;5.16;73.58
72336;BME280;65062;48.446;8.834;2023-03-17T08:31:14;97101.88;;;5.24;73.42
72336;BME280;65062;48.446;8.834;2023-03-17T08:34:16;97091.16;;;5.27;72.81
72336;BME280;65062;48.446;8.834;2023-03-17T08:37:16;97085.31;;;5.25;72.47
72336;BME280;65062;48.446;8.834;2023-03-17T08:40:17;97091.19;;;5.35;72.65
72336;BME280;65062;48.446;8.834;2023-03-17T08:43:18;97094.09;;;5.48;73.04
72336;BME280;65062;48.446;8.834;2023-03-17T08:46:22;97093.41;;;5.70;71.98
72336;BME280;65062;48.446;8.834;2023-03-17T08:49:22;97083.66;;;5.88;72.18
72336;BME280;65062;48.446;8.834;2023-03-17T08:52:23;97085.63;;;6.33;69.74
72336;BME280;65062;48.446;8.834;2023-03-17T08:55:23;97081.78;;;6.52;68.67
72336;BME280;65062;48.446;8.834;2023-03-17T08:58:24;97071.50;;;6.89;67.90
72336;BME280;65062;48.446;8.834;2023-03-17T09:01:24;97063.72;;;7.34;63.48
72336;BME280;65062;48.446;8.834;2023-03-17T09:04:26;97075.16;;;7.62;62.38
72336;BME280;65062;48.446;8.834;2023-03-17T09:07:27;97069.81;;;7.92;59.96
72336;BME280;65062;48.446;8.834;2023-03-17T09:10:27;97063.53;;;8.01;60.58
72336;BME280;65062;48.446;8.834;2023-03-17T09:13:28;97068.47;;;8.11;60.83
72336;BME280;65062;48.446;8.834;2023-03-17T09:16:28;97068.09;;;7.99;59.55
72336;BME280;65062;48.446;8.834;2023-03-17T09:19:33;97064.63;;;7.92;61.57
72336;BME280;65062;48.446;8.834;2023-03-17T09:22:33;97069.91;;;7.84;62.92
72336;BME280;65062;48.446;8.834;2023-03-17T09:25:35;97077.44;;;7.79;63.50
72336;BME280;65062;48.446;8.834;2023-03-17T09:28:36;97067.81;;;7.80;63.21
72336;BME280;65062;48.446;8.834;2023-03-17T09:31:37;97071.59;;;7.92;64.56
72336;BME280;65062;48.446;8.834;2023-03-17T09:34:37;97065.03;;;8.10;65.10
72336;BME280;65062;48.446;8.834;2023-03-17T09:37:38;97064.63;;;8.36;64.91
72336;BME280;65062;48.446;8.834;2023-03-17T09:40:46;97061.25;;;8.57;64.93
72336;BME280;65062;48.446;8.834;2023-03-17T09:44:03;97061.44;;;8.91;64.15
72336;BME280;65062;48.446;8.834;2023-03-17T09:50:25;97056.03;;;9.89;61.88
72336;BME280;65062;48.446;8.834;2023-03-17T09:53:50;97049.41;;;10.68;59.57
72336;BME280;65062;48.446;8.834;2023-03-17T09:57:12;97042.84;;;11.18;57.67
72336;BME280;65062;48.446;8.834;2023-03-17T10:00:16;97041.50;;;11.80;56.27
72336;BME280;65062;48.446;8.834;2023-03-17T10:03:18;97036.94;;;12.33;55.13
72336;BME280;65062;48.446;8.834;2023-03-17T10:06:32;97031.41;;;12.92;53.17
72336;BME280;65062;48.446;8.834;2023-03-17T10:09:44;97026.47;;;13.15;51.82
72336;BME280;65062;48.446;8.834;2023-03-17T10:13:00;97031.13;;;13.62;51.16
72336;BME280;65062;48.446;8.834;2023-03-17T10:16:53;97026.22;;;13.90;49.99
72336;BME280;65062;48.446;8.834;2023-03-17T10:19:38;97020.50;;;14.35;47.72
72336;BME280;65062;48.446;8.834;2023-03-17T10:22:49;97014.56;;;14.88;45.46
72336;BME280;65062;48.446;8.834;2023-03-17T10:25:55;97004.22;;;15.57;43.77
72336;BME280;65062;48.446;8.834;2023-03-17T10:28:57;97003.22;;;15.81;44.91
72336;BME280;65062;48.446;8.834;2023-03-17T10:31:59;97007.78;;;15.85;45.86
72336;BME280;65062;48.446;8.834;2023-03-17T10:34:59;97003.53;;;15.84;44.83
72336;BME280;65062;48.446;8.834;2023-03-17T10:38:01;97004.06;;;16.44;42.08
72336;BME280;65062;48.446;8.834;2023-03-17T10:41:12;96987.81;;;16.92;41.89
72336;BME280;65062;48.446;8.834;2023-03-17T10:44:22;96988.97;;;17.12;40.21
72336;BME280;65062;48.446;8.834;2023-03-17T10:47:38;96998.09;;;17.21;39.27
72336;BME280;65062;48.446;8.834;2023-03-17T10:50:39;96986.38;;;17.62;39.13
72336;BME280;65062;48.446;8.834;2023-03-17T10:53:40;96986.66;;;17.98;39.84
72336;BME280;65062;48.446;8.834;2023-03-17T10:56:46;96986.31;;;18.33;38.03
72336;BME280;65062;48.446;8.834;2023-03-17T10:59:50;96981.56;;;18.78;35.99
72336;BME280;65062;48.446;8.834;2023-03-17T11:02:55;96977.22;;;18.94;36.06
72336;BME280;65062;48.446;8.834;2023-03-17T11:06:03;96981.88;;;18.82;36.38
72336;BME280;65062;48.446;8.834;2023-03-17T11:09:06;96974.47;;;19.10;36.55
72336;BME280;65062;48.446;8.834;2023-03-17T11:12:27;96971.28;;;19.35;37.43
72336;BME280;65062;48.446;8.834;2023-03-17T11:15:29;96970.72;;;19.64;36.01
72336;BME280;65062;48.446;8.834;2023-03-17T11:18:35;96963.84;;;20.15;32.96
72336;BME280;65062;48.446;8.834;2023-03-17T11:21:53;96960.50;;;20.34;33.34
72336;BME280;65062;48.446;8.834;2023-03-17T11:28:24;96951.59;;;20.65;32.90
72336;BME280;65062;48.446;8.834;2023-03-17T11:31:30;96939.63;;;20.63;32.41
72336;BME280;65062;48.446;8.834;2023-03-17T11:37:59;96929.88;;;21.79;30.59
72336;BME280;65062;48.446;8.834;2023-03-17T11:44:18;96933.09;;;22.44;29.15
72336;BME280;65062;48.446;8.834;2023-03-17T11:50:40;96929.13;;;24.20;27.89
72336;BME280;65062;48.446;8.834;2023-03-17T11:57:15;96925.22;;;26.61;23.02
72336;BME280;65062;48.446;8.834;2023-03-17T12:00:23;96920.16;;;27.44;23.33
72336;BME280;65062;48.446;8.834;2023-03-17T12:06:45;96914.28;;;25.89;23.36
72336;BME280;65062;48.446;8.834;2023-03-17T12:09:57;96919.69;;;26.57;21.66
72336;BME280;65062;48.446;8.834;2023-03-17T12:16:29;96904.69;;;27.27;20.67
72336;BME280;65062;48.446;8.834;2023-03-17T12:19:53;96914.25;;;27.86;21.51
72336;BME280;65062;48.446;8.834;2023-03-17T12:27:12;96899.22;;;28.97;20.03
72336;BME280;65062;48.446;8.834;2023-03-17T12:31:11;96907.78;;;28.34;20.91
72336;BME280;65062;48.446;8.834;2023-03-17T12:34:18;96908.56;;;28.26;19.11
72336;BME280;65062;48.446;8.834;2023-03-17T12:37:20;96898.22;;;27.28;20.28
72336;BME280;65062;48.446;8.834;2023-03-17T12:40:31;96900.09;;;25.89;22.42
72336;BME280;65062;48.446;8.834;2023-03-17T12:53:26;96883.88;;;23.76;26.97
72336;BME280;65062;48.446;8.834;2023-03-17T12:56:33;96882.19;;;23.57;26.82
72336;BME280;65062;48.446;8.834;2023-03-17T12:59:35;96885.19;;;24.26;25.05
72336;BME280;65062;48.446;8.834;2023-03-17T13:02:37;96876.22;;;24.35;26.44
72336;BME280;65062;48.446;8.834;2023-03-17T13:05:38;96869.16;;;25.00;23.16
72336;BME280;65062;48.446;8.834;2023-03-17T13:08:39;96858.50;;;26.05;23.24
72336;BME280;65062;48.446;8.834;2023-03-17T13:14:44;96852.88;;;27.88;22.01
72336;BME280;65062;48.446;8.834;2023-03-17T13:17:45;96857.84;;;28.03;21.82
72336;BME280;65062;48.446;8.834;2023-03-17T13:23:59;96850.59;;;28.20;21.66
72336;BME280;65062;48.446;8.834;2023-03-17T13:33:33;96842.50;;;27.73;21.65
72336;BME280;65062;48.446;8.834;2023-03-17T13:40:05;96835.34;;;26.72;22.35
72336;BME280;65062;48.446;8.834;2023-03-17T13:46:27;96822.13;;;26.12;23.68
72336;BME280;65062;48.446;8.834;2023-03-17T13:49:31;96828.84;;;26.37;23.40
72336;BME280;65062;48.446;8.834;2023-03-17T13:52:38;96827.34;;;27.02;24.02
72336;BME280;65062;48.446;8.834;2023-03-17T13:55:42;96843.63;;;27.80;23.50
72336;BME280;65062;48.446;8.834;2023-03-17T14:02:16;96831.66;;;27.56;22.45
72336;BME280;65062;48.446;8.834;2023-03-17T14:05:23;96817.25;;;28.98;21.67
72336;BME280;65062;48.446;8.834;2023-03-17T14:08:36;96820.09;;;28.51;21.79
72336;BME280;65062;48.446;8.834;2023-03-17T14:11:39;96822.25;;;27.75;22.27
72336;BME280;65062;48.446;8.834;2023-03-17T14:14:56;96820.03;;;27.77;22.57
72336;BME280;65062;48.446;8.834;2023-03-17T14:18:11;96811.06;;;27.43;24.27
72336;BME280;65062;48.446;8.834;2023-03-17T14:21:36;96812.13;;;27.42;23.34
72336;BME280;65062;48.446;8.834;2023-03-17T14:24:38;96813.88;;;27.38;23.46
72336;BME280;65062;48.446;8.834;2023-03-17T14:27:39;96808.63;;;26.89;23.76
72336;BME280;65062;48.446;8.834;2023-03-17T14:30:53;96802.53;;;26.75;24.64
72336;BME280;65062;48.446;8.834;2023-03-17T14:33:58;96810.66;;;26.34;23.73
72336;BME280;65062;48.446;8.834;2023-03-17T14:37:00;96815.69;;;26.63;24.44
72336;BME280;65062;48.446;8.834;2023-03-17T14:40:01;96814.06;;;27.41;23.76
72336;BME280;65062;48.446;8.834;2023-03-17T14:43:02;96802.84;;;28.69;22.37
72336;BME280;65062;48.446;8.834;2023-03-17T14:46:05;96803.88;;;29.44;19.37
72336;BME280;65062;48.446;8.834;2023-03-17T14:49:18;96795.06;;;29.73;20.90
72336;BME280;65062;48.446;8.834;2023-03-17T14:52:22;96806.72;;;27.72;20.53
72336;BME280;65062;48.446;8.834;2023-03-17T14:55:39;96799.03;;;26.03;27.08
72336;BME280;65062;48.446;8.834;2023-03-17T14:58:42;96801.75;;;25.71;25.57
72336;BME280;65062;48.446;8.834;2023-03-17T15:01:45;96789.72;;;25.28;24.57
72336;BME280;65062;48.446;8.834;2023-03-17T15:04:57;96790.03;;;25.08;26.80
72336;BME280;65062;48.446;8.834;2023-03-17T15:07:58;96789.06;;;24.53;25.60
72336;BME280;65062;48.446;8.834;2023-03-17T15:10:58;96786.09;;;24.54;26.49
72336;BME280;65062;48.446;8.834;2023-03-17T15:14:27;96790.34;;;24.74;27.21
72336;BME280;65062;48.446;8.834;2023-03-17T15:17:35;96790.81;;;24.02;28.78
72336;BME280;65062;48.446;8.834;2023-03-17T15:20:36;96783.63;;;23.55;30.76
72336;BME280;65062;48.446;8.834;2023-03-17T15:23:38;96788.81;;;23.47;29.88
72336;BME280;65062;48.446;8.834;2023-03-17T15:26:39;96785.75;;;23.01;35.48
72336;BME280;65062;48.446;8.834;2023-03-17T15:29:40;96792.34;;;22.80;30.70
72336;BME280;65062;48.446;8.834;2023-03-17T15:32:40;96788.91;;;22.36;30.78
72336;BME280;65062;48.446;8.834;2023-03-17T15:35:40;96779.88;;;22.27;29.29
72336;BME280;65062;48.446;8.834;2023-03-17T15:38:41;96787.69;;;22.13;32.69
72336;BME280;65062;48.446;8.834;2023-03-17T15:41:41;96787.81;;;21.93;38.83
72336;BME280;65062;48.446;8.834;2023-03-17T15:44:42;96783.38;;;21.69;36.92
72336;BME280;65062;48.446;8.834;2023-03-17T15:47:43;96780.78;;;21.44;35.81
72336;BME280;65062;48.446;8.834;2023-03-17T15:50:47;96779.47;;;21.36;38.88
72336;BME280;65062;48.446;8.834;2023-03-17T15:53:48;96784.84;;;20.86;45.30
72336;BME280;65062;48.446;8.834;2023-03-17T15:56:48;96788.84;;;20.48;44.36
72336;BME280;65062;48.446;8.834;2023-03-17T15:59:49;96779.47;;;20.21;44.03
72336;BME280;65062;48.446;8.834;2023-03-17T16:02:52;96782.28;;;19.79;45.01
72336;BME280;65062;48.446;8.834;2023-03-17T16:05:53;96782.06;;;19.34;44.44
72336;BME280;65062;48.446;8.834;2023-03-17T16:08:53;96778.53;;;18.87;38.97
72336;BME280;65062;48.446;8.834;2023-03-17T16:11:53;96788.16;;;18.61;40.84
72336;BME280;65062;48.446;8.834;2023-03-17T16:14:54;96792.97;;;18.64;34.94
72336;BME280;65062;48.446;8.834;2023-03-17T16:17:56;96791.31;;;18.58;33.43
72336;BME280;65062;48.446;8.834;2023-03-17T16:20:58;96804.25;;;18.50;34.10
72336;BME280;65062;48.446;8.834;2023-03-17T16:24:00;96813.84;;;18.34;35.11
72336;BME280;65062;48.446;8.834;2023-03-17T16:27:00;96804.97;;;18.19;31.55
72336;BME280;65062;48.446;8.834;2023-03-17T16:30:01;96813.34;;;18.11;31.25
72336;BME280;65062;48.446;8.834;2023-03-17T16:33:11;96810.53;;;17.96;33.02
72336;BME280;65062;48.446;8.834;2023-03-17T16:36:16;96808.75;;;17.80;32.74
72336;BME280;65062;48.446;8.834;2023-03-17T16:39:19;96808.69;;;17.53;34.15
72336;BME280;65062;48.446;8.834;2023-03-17T16:42:21;96819.63;;;17.24;37.25
72336;BME280;65062;48.446;8.834;2023-03-17T16:45:31;96812.00;;;16.89;39.20
72336;BME280;65062;48.446;8.834;2023-03-17T16:48:32;96829.13;;;16.70;39.74
72336;BME280;65062;48.446;8.834;2023-03-17T16:51:32;96828.81;;;16.50;41.34
72336;BME280;65062;48.446;8.834;2023-03-17T16:54:33;96830.31;;;16.34;39.95
72336;BME280;65062;48.446;8.834;2023-03-17T16:57:33;96828.94;;;16.15;42.19
72336;BME280;65062;48.446;8.834;2023-03-17T17:00:34;96834.50;;;16.02;47.89
72336;BME280;65062;48.446;8.834;2023-03-17T17:03:34;96838.03;;;15.68;48.05
72336;BME280;65062;48.446;8.834;2023-03-17T17:06:36;96841.25;;;15.47;51.86
72336;BME280;65062;48.446;8.834;2023-03-17T17:09:37;96844.72;;;15.25;54.45
72336;BME280;65062;48.446;8.834;2023-03-17T17:12:38;96855.59;;;14.94;55.96
72336;BME280;65062;48.446;8.834;2023-03-17T17:15:39;96855.66;;;14.64;55.92
72336;BME280;65062;48.446;8.834;2023-03-17T17:18:40;96859.53;;;14.50;53.88
72336;BME280;65062;48.446;8.834;2023-03-17T17:21:40;96857.44;;;14.22;54.44